createdAt,value
2023-01-13T00:01:24.781Z,99067.41
2023-01-13T00:03:52.618Z,99064.59
2023-01-13T00:06:22.425Z,99070.75
2023-01-13T00:08:50.348Z,99063.78
2023-01-13T00:11:18.939Z,99061.94
2023-01-13T00:13:45.977Z,99063.06
2023-01-13T00:16:18.349Z,99059.00
2023-01-13T00:18:45.994Z,99063.66
2023-01-13T00:21:21.416Z,99057.03
2023-01-13T00:23:49.326Z,99061.75
2023-01-13T00:26:21.799Z,99060.00
2023-01-13T00:28:49.909Z,99058.13
2023-01-13T00:31:19.261Z,99052.88
2023-01-13T00:33:48.312Z,99053.09
2023-01-13T00:36:16.188Z,99053.47
2023-01-13T00:38:44.785Z,99055.63
2023-01-13T00:41:14.166Z,99053.84
2023-01-13T00:43:41.985Z,99062.44
2023-01-13T00:46:10.891Z,99057.16
2023-01-13T00:48:38.053Z,99058.72
2023-01-13T00:51:12.078Z,99053.69
2023-01-13T00:53:40.931Z,99051.78
2023-01-13T00:56:14.461Z,99056.59
2023-01-13T00:58:42.728Z,99044.91
2023-01-13T01:01:23.449Z,99053.03
2023-01-13T01:03:52.123Z,99047.34
2023-01-13T01:06:22.588Z,99045.63
2023-01-13T01:08:50.225Z,99045.56
2023-01-13T01:11:20.029Z,99041.13
2023-01-13T01:13:52.500Z,99032.94
2023-01-13T01:16:21.224Z,99032.78
2023-01-13T01:18:49.775Z,99031.88
2023-01-13T01:21:17.563Z,99032.94
2023-01-13T01:23:45.152Z,99032.78
2023-01-13T01:26:21.642Z,99030.19
2023-01-13T01:28:48.863Z,99019.84
2023-01-13T01:31:25.527Z,99025.97
2023-01-13T01:33:54.044Z,99021.53
2023-01-13T01:36:22.391Z,99021.53
2023-01-13T01:38:49.584Z,99018.06
2023-01-13T01:41:22.913Z,99010.37
2023-01-13T01:44:04.205Z,99008.63
2023-01-13T01:46:41.326Z,99012.97
2023-01-13T01:49:17.751Z,99007.56
2023-01-13T01:51:57.029Z,99005.66
2023-01-13T01:55:07.579Z,99004.59
2023-01-13T01:57:59.952Z,99000.94
2023-01-13T02:00:29.003Z,98998.44
2023-01-13T02:02:57.520Z,98992.63
2023-01-13T02:05:24.830Z,98996.44
2023-01-13T02:07:54.027Z,98993.69
2023-01-13T02:10:23.572Z,98987.97
2023-01-13T02:12:51.035Z,98985.97
2023-01-13T02:15:23.421Z,98984.97
2023-01-13T02:17:56.777Z,98988.34
2023-01-13T02:20:42.480Z,98990.00
2023-01-13T02:23:52.511Z,98991.75
2023-01-13T02:26:34.820Z,98974.63
2023-01-13T02:29:42.752Z,98971.00
2023-01-13T02:32:24.057Z,98975.66
2023-01-13T02:35:16.893Z,98970.50
2023-01-13T02:37:44.204Z,98975.00
2023-01-13T02:40:28.901Z,98977.69
2023-01-13T02:43:57.185Z,98977.69
2023-01-13T02:46:31.236Z,98982.69
2023-01-13T02:49:01.537Z,98979.69
2023-01-13T02:51:30.154Z,98971.16
2023-01-13T02:54:01.649Z,98964.00
2023-01-13T02:56:29.913Z,98965.75
2023-01-13T02:58:57.846Z,98960.56
2023-01-13T03:01:25.451Z,98952.91
2023-01-13T03:03:53.105Z,98961.41
2023-01-13T03:06:29.912Z,98951.75
2023-01-13T03:09:20.975Z,98955.84
2023-01-13T03:11:58.855Z,98946.31
2023-01-13T03:14:34.899Z,98948.97
2023-01-13T03:17:26.358Z,98940.91
2023-01-13T03:20:06.940Z,98943.97
2023-01-13T03:22:41.164Z,98956.16
2023-01-13T03:25:18.139Z,98936.66
2023-01-13T03:27:58.076Z,98941.31
2023-01-13T03:30:41.124Z,98943.06
2023-01-13T03:33:56.926Z,98941.13
2023-01-13T03:36:26.485Z,98934.63
2023-01-13T03:39:03.947Z,98933.78
2023-01-13T03:41:37.211Z,98935.06
2023-01-13T03:44:23.432Z,98924.63
2023-01-13T03:47:03.967Z,98933.66
2023-01-13T03:49:43.853Z,98929.88
2023-01-13T03:52:15.989Z,98933.13
2023-01-13T03:54:58.876Z,98935.47
2023-01-13T03:57:30.293Z,98932.13
2023-01-13T03:59:59.692Z,98930.53
2023-01-13T04:02:47.868Z,98933.97
2023-01-13T04:05:15.823Z,98932.47
2023-01-13T04:07:48.301Z,98930.78
2023-01-13T04:10:20.508Z,98937.22
2023-01-13T04:13:04.933Z,98938.72
2023-01-13T04:15:38.511Z,98935.72
2023-01-13T04:18:21.954Z,98937.41
2023-01-13T04:20:51.035Z,98928.88
2023-01-13T04:23:19.083Z,98937.47
2023-01-13T04:25:47.378Z,98938.31
2023-01-13T04:28:15.796Z,98938.06
2023-01-13T04:30:43.422Z,98943.81
2023-01-13T04:33:11.511Z,98936.97
2023-01-13T04:35:39.005Z,98939.06
2023-01-13T04:38:11.929Z,98944.00
2023-01-13T04:40:40.287Z,98949.75
2023-01-13T04:43:07.616Z,98943.97
2023-01-13T04:45:34.695Z,98944.16
2023-01-13T04:48:02.519Z,98942.72
2023-01-13T04:50:29.659Z,98940.97
2023-01-13T04:52:56.920Z,98943.47
2023-01-13T04:55:25.042Z,98951.50
2023-01-13T04:57:52.452Z,98944.81
2023-01-13T05:00:21.855Z,98943.28
2023-01-13T05:02:51.116Z,98939.50
2023-01-13T05:05:18.871Z,98935.69
2023-01-13T05:07:46.359Z,98945.62
2023-01-13T05:10:13.921Z,98948.06
2023-01-13T05:12:59.934Z,98948.47
2023-01-13T05:15:45.976Z,98954.56
2023-01-13T05:18:13.587Z,98958.06
2023-01-13T05:20:40.862Z,98952.44
2023-01-13T05:23:26.572Z,98961.22
2023-01-13T05:25:54.132Z,98966.63
2023-01-13T05:28:21.150Z,98959.94
2023-01-13T05:30:49.806Z,98970.94
2023-01-13T05:33:18.962Z,98972.47
2023-01-13T05:35:46.818Z,98974.06
2023-01-13T05:38:14.221Z,98965.44
2023-01-13T05:41:00.660Z,98964.44
2023-01-13T05:43:28.210Z,98966.88
2023-01-13T05:46:08.833Z,98965.03
2023-01-13T05:48:38.216Z,98963.56
2023-01-13T05:51:07.489Z,98968.00
2023-01-13T05:53:35.349Z,98963.56
2023-01-13T05:56:07.081Z,98969.59
2023-01-13T05:58:34.609Z,98962.56
2023-01-13T06:01:08.533Z,98961.47
2023-01-13T06:03:37.021Z,98961.06
2023-01-13T06:06:04.586Z,98952.66
2023-01-13T06:08:32.129Z,98950.47
2023-01-13T06:10:59.653Z,98959.41
2023-01-13T06:13:26.995Z,98956.25
2023-01-13T06:15:58.118Z,98956.25
2023-01-13T06:18:25.573Z,98957.75
2023-01-13T06:20:52.735Z,98964.34
2023-01-13T06:23:20.146Z,98961.00
2023-01-13T06:26:20.927Z,98956.31
2023-01-13T06:28:49.991Z,98967.75
2023-01-13T06:31:17.425Z,98961.41
2023-01-13T06:33:57.973Z,98963.44
2023-01-13T06:36:32.380Z,98954.66
2023-01-13T06:38:59.769Z,98961.19
2023-01-13T06:41:46.515Z,98964.09
2023-01-13T06:44:13.801Z,98969.50
2023-01-13T06:46:41.231Z,98959.69
2023-01-13T06:49:08.922Z,98970.84
2023-01-13T06:51:35.943Z,98974.34
2023-01-13T06:54:04.100Z,98976.84
2023-01-13T06:56:31.186Z,98977.28
2023-01-13T06:58:58.403Z,98986.09
2023-01-13T07:01:28.707Z,98981.16
2023-01-13T07:03:56.167Z,98991.00
2023-01-13T07:06:23.214Z,98986.84
2023-01-13T07:08:50.544Z,98986.59
2023-01-13T07:11:17.657Z,98993.59
2023-01-13T07:14:03.047Z,98989.66
2023-01-13T07:16:30.493Z,98990.38
2023-01-13T07:18:57.500Z,98985.88
2023-01-13T07:21:24.510Z,98977.03
2023-01-13T07:23:51.837Z,98972.34
2023-01-13T07:26:18.864Z,98976.69
2023-01-13T07:28:45.870Z,98984.81
2023-01-13T07:31:18.478Z,98978.47
2023-01-13T07:33:45.670Z,98983.53
2023-01-13T07:36:14.186Z,98980.09
2023-01-13T07:38:41.539Z,98977.06
2023-01-13T07:41:30.983Z,98982.06
2023-01-13T07:44:05.470Z,98993.53
2023-01-13T07:46:32.858Z,98995.09
2023-01-13T07:49:01.489Z,98983.50
2023-01-13T07:51:28.537Z,98978.56
2023-01-13T07:53:55.674Z,98999.91
2023-01-13T07:56:23.007Z,98996.00
2023-01-13T07:58:51.150Z,98998.12
2023-01-13T08:01:19.039Z,99000.50
2023-01-13T08:03:46.417Z,99005.38
2023-01-13T08:06:14.308Z,99005.41
2023-01-13T08:08:41.308Z,99003.28
2023-01-13T08:11:10.058Z,99011.78
2023-01-13T08:13:37.353Z,99010.00
2023-01-13T08:16:06.974Z,99013.13
2023-01-13T08:18:36.534Z,99012.13
2023-01-13T08:21:06.337Z,99011.28
2023-01-13T08:23:33.828Z,99014.28
2023-01-13T08:26:03.130Z,99016.81
2023-01-13T08:28:31.289Z,99017.56
2023-01-13T08:31:06.155Z,99024.19
2023-01-13T08:33:34.182Z,99024.09
2023-01-13T08:46:44.696Z,99038.38
2023-01-13T08:49:12.429Z,99038.38
2023-01-13T08:51:39.575Z,99048.22
2023-01-13T08:54:06.643Z,99055.28
2023-01-13T08:56:35.584Z,99057.75
2023-01-13T08:59:03.069Z,99064.19
2023-01-13T09:01:30.310Z,99047.44
2023-01-13T09:03:57.849Z,99048.78
2023-01-13T09:06:24.891Z,99057.66
2023-01-13T09:08:52.127Z,99066.00
2023-01-13T09:11:40.532Z,99049.91
2023-01-13T09:14:07.598Z,99050.59
2023-01-13T09:16:37.036Z,99044.16
2023-01-13T09:19:04.215Z,99041.91
2023-01-13T09:21:31.396Z,99032.72
2023-01-13T09:23:58.842Z,99042.75
2023-01-13T09:26:25.892Z,99042.22
2023-01-13T09:28:53.022Z,99041.81
2023-01-13T09:31:20.625Z,99041.31
2023-01-13T09:34:06.821Z,99044.59
2023-01-13T09:36:34.662Z,99042.44
2023-01-13T09:39:01.819Z,99033.97
2023-01-13T09:41:50.052Z,99039.59
2023-01-13T09:44:22.448Z,99034.22
2023-01-13T09:46:53.355Z,99018.22
2023-01-13T09:49:26.298Z,99018.09
2023-01-13T09:52:12.035Z,99027.34
2023-01-13T09:55:06.453Z,99019.22
2023-01-13T09:57:37.713Z,99018.97
2023-01-13T10:00:12.382Z,99017.19
2023-01-13T10:02:45.740Z,99022.97
2023-01-13T10:05:34.501Z,99018.72
2023-01-13T10:08:06.577Z,99027.16
2023-01-13T10:10:46.641Z,99020.72
2023-01-13T10:13:26.456Z,99015.16
2023-01-13T10:16:03.257Z,99013.00
2023-01-13T10:18:37.293Z,99029.78
2023-01-13T10:21:23.065Z,99020.09
2023-01-13T10:23:57.329Z,99026.25
2023-01-13T10:26:25.256Z,99027.09
2023-01-13T10:28:54.259Z,99030.06
2023-01-13T10:31:22.938Z,99033.63
2023-01-13T10:33:58.425Z,99032.87
2023-01-13T10:36:25.825Z,99020.19
2023-01-13T10:38:56.168Z,99023.22
2023-01-13T10:41:26.972Z,99016.72
2023-01-13T10:44:05.937Z,99006.47
2023-01-13T10:46:36.328Z,99005.34
2023-01-13T10:49:19.408Z,99002.84
2023-01-13T10:51:47.258Z,98991.44
2023-01-13T10:54:23.156Z,98989.69
2023-01-13T10:57:19.876Z,98984.63
2023-01-13T10:59:48.415Z,98975.91
2023-01-13T11:02:30.689Z,98974.94
2023-01-13T11:05:22.851Z,98971.97
2023-01-13T11:07:52.550Z,98971.06
2023-01-13T11:10:27.624Z,98963.91
2023-01-13T11:13:19.753Z,98962.41
2023-01-13T11:15:51.316Z,98965.41
2023-01-13T11:18:22.209Z,98953.94
2023-01-13T11:20:50.592Z,98951.44
2023-01-13T11:23:21.868Z,98947.19
2023-01-13T11:25:53.230Z,98949.97
2023-01-13T11:28:26.842Z,98944.81
2023-01-13T11:30:57.819Z,98940.50
2023-01-13T11:33:30.968Z,98937.22
2023-01-13T11:36:09.168Z,98938.81
2023-01-13T11:38:55.780Z,98945.69
2023-01-13T11:42:07.914Z,98945.97
2023-01-13T11:44:45.525Z,98935.88
2023-01-13T11:47:13.715Z,98933.37
2023-01-13T11:49:41.821Z,98924.16
2023-01-13T11:52:45.011Z,98921.66
2023-01-13T11:55:18.287Z,98919.94
2023-01-13T11:58:38.805Z,98913.97
2023-01-13T12:01:25.908Z,98902.63
2023-01-13T12:04:06.279Z,98904.25
2023-01-13T12:06:36.470Z,98893.44
2023-01-13T12:09:25.055Z,98890.75
2023-01-13T12:12:33.490Z,98877.97
2023-01-13T12:15:30.146Z,98873.53
2023-01-13T12:18:25.018Z,98868.53
2023-01-13T12:21:04.690Z,98862.44
2023-01-13T12:23:47.892Z,98857.81
2023-01-13T12:26:16.762Z,98856.22
2023-01-13T12:29:03.616Z,98860.50
2023-01-13T12:31:32.027Z,98870.59
2023-01-13T12:34:19.293Z,98870.44
2023-01-13T12:37:14.727Z,98864.31
2023-01-13T12:39:47.716Z,98858.28
2023-01-13T12:42:38.900Z,98853.44
2023-01-13T12:45:11.533Z,98850.78
2023-01-13T12:47:43.557Z,98856.53
2023-01-13T12:50:23.676Z,98850.50
2023-01-13T12:52:52.098Z,98863.16
2023-01-13T12:55:24.717Z,98854.22
2023-01-13T12:57:59.170Z,98843.47
2023-01-13T13:00:41.395Z,98843.37
2023-01-13T13:03:15.824Z,98852.28
2023-01-13T13:05:56.972Z,98852.91
2023-01-13T13:08:51.670Z,98851.53
2023-01-13T13:11:53.861Z,98859.66
2023-01-13T13:14:39.388Z,98863.28
2023-01-13T13:17:34.119Z,98867.63
2023-01-13T13:20:01.922Z,98858.19
2023-01-13T13:22:41.767Z,98848.56
2023-01-13T13:25:21.616Z,98845.78
2023-01-13T13:28:12.075Z,98837.03
2023-01-13T13:30:45.851Z,98835.91
2023-01-13T13:33:29.961Z,98847.91
2023-01-13T13:36:15.362Z,98856.44
2023-01-13T13:39:29.389Z,98867.94
2023-01-13T13:42:28.896Z,98868.00
2023-01-13T13:45:15.498Z,98876.78
2023-01-13T13:47:43.045Z,98883.75
2023-01-13T13:50:16.232Z,98884.94
2023-01-13T13:52:54.122Z,98893.56
2023-01-13T13:55:25.004Z,98901.50
2023-01-13T13:57:54.486Z,98901.03
2023-01-13T14:00:30.641Z,98902.09
2023-01-13T14:03:01.490Z,98897.44
2023-01-13T14:05:34.525Z,98899.66
2023-01-13T14:08:18.056Z,98902.16
2023-01-13T14:10:46.272Z,98900.84
2023-01-13T14:13:31.786Z,98902.16
2023-01-13T14:16:00.003Z,98899.28
2023-01-13T14:18:28.864Z,98907.47
2023-01-13T14:20:59.984Z,98910.63
2023-01-13T14:23:29.820Z,98907.03
2023-01-13T14:26:13.100Z,98905.38
2023-01-13T14:28:41.018Z,98906.66
2023-01-13T14:31:09.440Z,98907.44
2023-01-13T14:33:38.868Z,98905.38
2023-01-13T14:36:32.740Z,98912.03
2023-01-13T14:39:02.809Z,98915.16
2023-01-13T14:41:33.786Z,98921.91
2023-01-13T14:44:02.808Z,98914.66
2023-01-13T14:46:38.548Z,98916.31
2023-01-13T14:49:05.863Z,98913.97
2023-01-13T14:51:33.234Z,98912.75
2023-01-13T14:54:00.349Z,98911.59
2023-01-13T14:56:42.764Z,98906.72
2023-01-13T14:59:56.183Z,98904.41
2023-01-13T15:02:29.758Z,98901.00
2023-01-13T15:05:20.316Z,98896.66
2023-01-13T15:08:00.796Z,98899.28
2023-01-13T15:10:37.205Z,98890.56
2023-01-13T15:13:06.302Z,98892.06
2023-01-13T15:15:38.178Z,98893.38
2023-01-13T15:18:14.618Z,98901.13
2023-01-13T15:20:42.678Z,98899.19
2023-01-13T15:23:09.835Z,98903.44
2023-01-13T15:25:42.165Z,98910.41
2023-01-13T15:28:26.090Z,98904.03
2023-01-13T15:30:54.676Z,98910.84
2023-01-13T15:33:22.746Z,98903.63
2023-01-13T15:35:51.635Z,98905.22
2023-01-13T15:38:21.021Z,98903.91
2023-01-13T15:40:49.995Z,98902.16
2023-01-13T15:43:39.127Z,98904.84
2023-01-13T15:46:32.630Z,98913.00
2023-01-13T15:49:42.484Z,98915.97
2023-01-13T15:52:21.876Z,98905.69
2023-01-13T15:54:54.582Z,98906.44
2023-01-13T15:57:25.983Z,98910.97
2023-01-13T15:59:58.378Z,98907.25
2023-01-13T16:02:29.803Z,98908.75
2023-01-13T16:04:57.443Z,98910.56
2023-01-13T16:07:25.385Z,98913.38
2023-01-13T16:09:52.960Z,98912.88
2023-01-13T16:12:20.358Z,98924.47
2023-01-13T16:14:47.624Z,98925.97
2023-01-13T16:17:27.345Z,98929.09
2023-01-13T16:19:54.751Z,98926.41
2023-01-13T16:22:24.075Z,98922.28
2023-01-13T16:24:51.264Z,98918.09
2023-01-13T16:27:21.149Z,98909.22
2023-01-13T16:29:49.236Z,98919.88
2023-01-13T16:32:17.076Z,98915.88
2023-01-13T16:34:44.451Z,98915.06
2023-01-13T16:37:23.886Z,98914.50
2023-01-13T16:39:52.260Z,98911.31
2023-01-13T16:42:20.210Z,98917.63
2023-01-13T16:44:48.534Z,98908.66
2023-01-13T16:47:17.305Z,98921.06
2023-01-13T16:49:45.475Z,98919.28
2023-01-13T16:52:12.560Z,98917.72
2023-01-13T16:54:39.979Z,98927.09
2023-01-13T16:57:12.580Z,98928.19
2023-01-13T16:59:40.021Z,98916.53
2023-01-13T17:02:13.679Z,98910.03
2023-01-13T17:04:43.983Z,98903.56
2023-01-13T17:07:16.949Z,98906.06
2023-01-13T17:09:44.428Z,98898.75
2023-01-13T17:12:11.695Z,98911.34
2023-01-13T17:14:38.768Z,98915.59
2023-01-13T17:17:06.140Z,98914.88
2023-01-13T17:19:33.218Z,98907.78
2023-01-13T17:22:00.324Z,98909.09
2023-01-13T17:24:31.252Z,98907.28
2023-01-13T17:26:58.775Z,98908.00
2023-01-13T17:29:27.115Z,98910.22
2023-01-13T17:31:54.834Z,98912.28
2023-01-13T17:34:21.958Z,98908.47
2023-01-13T17:36:49.191Z,98904.84
2023-01-13T17:39:21.890Z,98907.44
2023-01-13T17:41:49.687Z,98909.66
2023-01-13T17:44:18.933Z,98912.25
2023-01-13T17:46:46.541Z,98907.81
2023-01-13T17:49:15.606Z,98914.66
2023-01-13T17:51:43.377Z,98916.97
2023-01-13T17:54:12.303Z,98926.72
2023-01-13T17:56:41.344Z,98927.16
2023-01-13T17:59:10.895Z,98935.53
2023-01-13T18:01:39.091Z,98931.06
2023-01-13T18:04:07.028Z,98939.28
2023-01-13T18:06:34.672Z,98937.16
2023-01-13T18:09:01.809Z,98940.59
2023-01-13T18:11:29.199Z,98951.34
2023-01-13T18:14:00.296Z,98942.72
2023-01-13T18:16:30.248Z,98939.63
2023-01-13T18:19:18.544Z,98946.94
2023-01-13T18:22:05.294Z,98949.72
2023-01-13T18:24:51.170Z,98950.97
2023-01-13T18:27:24.194Z,98949.63
2023-01-13T18:29:56.067Z,98948.00
2023-01-13T18:32:26.401Z,98947.03
2023-01-13T18:35:04.773Z,98949.28
2023-01-13T18:37:35.969Z,98951.63
2023-01-13T18:40:05.162Z,98955.03
2023-01-13T18:42:50.723Z,98951.34
2023-01-13T18:45:19.909Z,98955.72
2023-01-13T18:47:46.991Z,98956.72
2023-01-13T18:50:14.154Z,98955.03
2023-01-13T18:52:43.155Z,98953.00
2023-01-13T18:55:10.288Z,98951.16
2023-01-13T18:57:40.592Z,98952.34
2023-01-13T19:00:13.912Z,98957.06
2023-01-13T19:02:41.220Z,98966.91
2023-01-13T19:05:10.174Z,98971.72
2023-01-13T19:07:37.232Z,98967.16
2023-01-13T19:10:06.279Z,98961.50
2023-01-13T19:12:34.285Z,98962.50
2023-01-13T19:15:01.973Z,98969.19
2023-01-13T19:17:34.325Z,98976.72
2023-01-13T19:20:02.106Z,98982.81
2023-01-13T19:22:32.728Z,98982.88
2023-01-13T19:25:00.715Z,98987.44
2023-01-13T19:27:28.760Z,98991.16
2023-01-13T19:30:00.521Z,98994.84
2023-01-13T19:32:28.743Z,98993.84
2023-01-13T19:34:59.272Z,99002.72
2023-01-13T19:37:30.285Z,99008.56
2023-01-13T19:39:59.891Z,98997.94
2023-01-13T19:42:45.951Z,99011.00
2023-01-13T19:45:27.208Z,99038.03
2023-01-13T19:47:55.407Z,99047.87
2023-01-13T19:50:22.860Z,99045.81
2023-01-13T19:52:49.865Z,99046.28
2023-01-13T19:55:17.238Z,99039.03
2023-01-13T19:57:44.617Z,99047.50
2023-01-13T20:00:14.206Z,99046.38
2023-01-13T20:02:47.822Z,99048.69
2023-01-13T20:05:21.090Z,99057.88
2023-01-13T20:07:50.222Z,99054.44
2023-01-13T20:10:21.452Z,99056.84
2023-01-13T20:12:48.917Z,99046.00
2023-01-13T20:15:16.009Z,99043.84
2023-01-13T20:17:42.988Z,99034.41
2023-01-13T20:20:10.831Z,99037.41
2023-01-13T20:22:39.207Z,99027.25
2023-01-13T20:25:07.304Z,99019.94
2023-01-13T20:27:34.840Z,99030.44
2023-01-13T20:30:01.823Z,99030.44
2023-01-13T20:32:28.975Z,99021.25
2023-01-13T20:34:56.270Z,99032.00
2023-01-13T20:37:23.453Z,99027.25
2023-01-13T20:39:50.618Z,99031.53
2023-01-13T20:42:29.964Z,99041.72
2023-01-13T20:45:00.440Z,99041.00
2023-01-13T20:47:30.476Z,99033.41
2023-01-13T20:49:58.901Z,99030.81
2023-01-13T20:52:26.035Z,99036.75
2023-01-13T20:54:53.453Z,99034.13
2023-01-13T20:57:20.585Z,99034.69
2023-01-13T20:59:47.607Z,99037.28
2023-01-13T21:02:16.253Z,99034.97
2023-01-13T21:04:43.787Z,99039.59
2023-01-13T21:07:12.261Z,99039.69
2023-01-13T21:09:39.833Z,99042.09
2023-01-13T21:12:25.692Z,99037.84
2023-01-13T21:15:11.629Z,99039.41
2023-01-13T21:17:57.533Z,99022.59
2023-01-13T21:20:24.861Z,99013.19
2023-01-13T21:22:53.095Z,98999.69
2023-01-13T21:25:20.194Z,98991.09
2023-01-13T21:27:47.611Z,98985.50
2023-01-13T21:30:15.790Z,98980.22
2023-01-13T21:32:46.741Z,98982.72
2023-01-13T21:35:15.019Z,98983.66
2023-01-13T21:37:43.289Z,98986.06
2023-01-13T21:40:12.745Z,98980.22
2023-01-13T21:42:58.982Z,98982.47
2023-01-13T21:45:44.957Z,98997.28
2023-01-13T21:48:12.469Z,99001.72
2023-01-13T21:50:39.595Z,98999.88
2023-01-13T21:53:07.962Z,99002.47
2023-01-13T21:55:36.999Z,99006.72
2023-01-13T21:58:14.696Z,99009.72
2023-01-13T22:00:43.784Z,99027.13
2023-01-13T22:03:16.061Z,99031.03
2023-01-13T22:05:43.102Z,99036.03
2023-01-13T22:08:12.422Z,99049.34
2023-01-13T22:10:57.149Z,99056.22
2023-01-13T22:13:43.723Z,99047.53
2023-01-13T22:16:12.736Z,99060.12
2023-01-13T22:18:40.201Z,99068.81
2023-01-13T22:21:07.460Z,99065.50
2023-01-13T22:23:34.532Z,99073.00
2023-01-13T22:26:05.731Z,99066.97
2023-01-13T22:28:34.221Z,99065.22
2023-01-13T22:31:01.577Z,99066.69
2023-01-13T22:33:28.588Z,99070.84
2023-01-13T22:35:55.941Z,99070.84
2023-01-13T22:38:24.149Z,99086.81
2023-01-13T22:41:03.080Z,99092.72
2023-01-13T22:43:30.941Z,99088.41
2023-01-13T22:45:59.664Z,99096.28
2023-01-13T22:48:27.538Z,99092.56
2023-01-13T22:50:55.247Z,99099.13
2023-01-13T22:53:22.574Z,99084.94
2023-01-13T22:55:57.284Z,99089.38
2023-01-13T22:58:25.253Z,99075.03
2023-01-13T23:00:53.473Z,99076.72
2023-01-13T23:03:22.518Z,99063.53
2023-01-13T23:05:56.027Z,99068.66
2023-01-13T23:08:23.097Z,99071.63
2023-01-13T23:10:50.848Z,99065.13
2023-01-13T23:13:17.885Z,99063.25
2023-01-13T23:15:45.335Z,99063.25
2023-01-13T23:18:12.643Z,99061.97
2023-01-13T23:20:39.704Z,99066.03
2023-01-13T23:23:07.071Z,99064.66
2023-01-13T23:25:34.467Z,99064.37
2023-01-13T23:28:01.612Z,99056.97
2023-01-13T23:30:28.731Z,99049.91
2023-01-13T23:32:56.176Z,99053.22
2023-01-13T23:35:23.258Z,99053.06
2023-01-13T23:37:50.317Z,99037.56
2023-01-13T23:40:17.855Z,99038.84
2023-01-13T23:42:44.979Z,99034.59
2023-01-13T23:45:12.083Z,99039.69
2023-01-13T23:47:39.461Z,99040.44
2023-01-13T23:50:06.657Z,99037.94
2023-01-13T23:52:33.646Z,99032.94
2023-01-13T23:55:01.061Z,99037.50
2023-01-13T23:57:28.465Z,99048.87
2023-01-13T23:59:55.637Z,99049.19
